Highland-University Park's Hourly Summary for Sunday, July 8, 2018
Hour Temp
(f)
RH
(%)
Solar Rad.
(MJ/m2)
Rainfall
(in)
Wind
(mph)
7/8/2018 12:00 AM 83 61 0 0 1.36
7/8/2018 1:00 AM 82 63 0 0 2.23
7/8/2018 2:00 AM 81 65 0 0 1.27
7/8/2018 3:00 AM 79 69 0 0 0.01
7/8/2018 4:00 AM 77 74 0 0 0
7/8/2018 5:00 AM 76 79 0 0 0
7/8/2018 6:00 AM 75 83 0 0 0
7/8/2018 7:00 AM 74 84 0.02 0 0.04
7/8/2018 8:00 AM 76 79 0.12 0 0.33
7/8/2018 9:00 AM 80 71 0.34 0 1.36
7/8/2018 10:00 AM 84 59 1.61 0 1.19
7/8/2018 11:00 AM 86 53 2.02 0 1.62
7/8/2018 12:00 PM 90 48 2.4 0 1.09
7/8/2018 1:00 PM 90 44 2.14 0 1.89
7/8/2018 2:00 PM 92 42 2.49 0 2.74
7/8/2018 3:00 PM 94 38 2.89 0 2.91
7/8/2018 4:00 PM 95 36 2.42 0 2.9
7/8/2018 5:00 PM 94 35 1.75 0 3.36
7/8/2018 6:00 PM 91 45 1.8 0 3.13
7/8/2018 7:00 PM 89 45 1.12 0 4.09
7/8/2018 8:00 PM 87 50 0.46 0 3.1
7/8/2018 9:00 PM 84 56 0.02 0 2.29
7/8/2018 10:00 PM 83 60 0 0 2.54
7/8/2018 11:00 PM 81 61 0 0 1.34
Data Summary 84 58 21.60 0.00 1.70